sensor_id;sensor_type;location;lat;lon;timestamp;P1;durP1;ratioP1;P2;durP2;ratioP2
15151;SDS011;7676;50.900;6.234;2023-09-12T00:12:53;5.40;;;4.67;;
15151;SDS011;7676;50.900;6.234;2023-09-12T00:27:56;5.53;;;4.97;;
15151;SDS011;7676;50.900;6.234;2023-09-12T00:42:58;6.03;;;5.13;;
15151;SDS011;7676;50.900;6.234;2023-09-12T00:58:01;6.50;;;5.60;;
15151;SDS011;7676;50.900;6.234;2023-09-12T01:13:04;6.00;;;5.40;;
15151;SDS011;7676;50.900;6.234;2023-09-12T01:28:09;6.43;;;5.60;;
15151;SDS011;7676;50.900;6.234;2023-09-12T01:43:13;7.57;;;5.80;;
15151;SDS011;7676;50.900;6.234;2023-09-12T01:58:18;8.33;;;6.57;;
15151;SDS011;7676;50.900;6.234;2023-09-12T02:13:22;6.80;;;6.03;;
15151;SDS011;7676;50.900;6.234;2023-09-12T02:28:24;8.03;;;5.97;;
15151;SDS011;7676;50.900;6.234;2023-09-12T02:43:27;7.83;;;7.00;;
15151;SDS011;7676;50.900;6.234;2023-09-12T02:58:30;7.80;;;6.53;;
15151;SDS011;7676;50.900;6.234;2023-09-12T03:13:33;7.07;;;6.40;;
15151;SDS011;7676;50.900;6.234;2023-09-12T03:28:37;10.10;;;8.63;;
15151;SDS011;7676;50.900;6.234;2023-09-12T03:43:39;12.30;;;9.47;;
15151;SDS011;7676;50.900;6.234;2023-09-12T03:58:43;12.07;;;10.67;;
15151;SDS011;7676;50.900;6.234;2023-09-12T04:13:46;12.83;;;10.60;;
15151;SDS011;7676;50.900;6.234;2023-09-12T04:28:48;12.03;;;10.83;;
15151;SDS011;7676;50.900;6.234;2023-09-12T04:43:52;13.60;;;10.10;;
15151;SDS011;7676;50.900;6.234;2023-09-12T04:58:55;14.30;;;12.33;;
15151;SDS011;7676;50.900;6.234;2023-09-12T05:13:58;13.83;;;11.23;;
15151;SDS011;7676;50.900;6.234;2023-09-12T05:29:02;14.30;;;11.37;;
15151;SDS011;7676;50.900;6.234;2023-09-12T05:44:05;16.60;;;12.33;;
15151;SDS011;7676;50.900;6.234;2023-09-12T05:59:08;14.50;;;12.43;;
15151;SDS011;7676;50.900;6.234;2023-09-12T06:14:11;15.97;;;13.33;;
15151;SDS011;7676;50.900;6.234;2023-09-12T06:29:14;14.93;;;12.33;;
15151;SDS011;7676;50.900;6.234;2023-09-12T06:44:17;16.37;;;14.43;;
15151;SDS011;7676;50.900;6.234;2023-09-12T06:59:19;20.17;;;17.00;;
15151;SDS011;7676;50.900;6.234;2023-09-12T07:14:22;21.33;;;16.50;;
15151;SDS011;7676;50.900;6.234;2023-09-12T07:29:27;16.53;;;14.77;;
15151;SDS011;7676;50.900;6.234;2023-09-12T07:44:29;17.73;;;16.00;;
15151;SDS011;7676;50.900;6.234;2023-09-12T07:59:33;17.97;;;16.07;;
15151;SDS011;7676;50.900;6.234;2023-09-12T08:14:36;16.83;;;15.23;;
15151;SDS011;7676;50.900;6.234;2023-09-12T08:29:39;19.03;;;16.93;;
15151;SDS011;7676;50.900;6.234;2023-09-12T08:44:43;17.00;;;15.27;;
15151;SDS011;7676;50.900;6.234;2023-09-12T08:59:46;16.10;;;14.47;;
15151;SDS011;7676;50.900;6.234;2023-09-12T09:14:50;17.43;;;15.50;;
15151;SDS011;7676;50.900;6.234;2023-09-12T09:29:53;14.07;;;12.57;;
15151;SDS011;7676;50.900;6.234;2023-09-12T09:44:55;10.97;;;9.87;;
15151;SDS011;7676;50.900;6.234;2023-09-12T09:59:58;11.90;;;10.67;;
15151;SDS011;7676;50.900;6.234;2023-09-12T10:15:01;8.33;;;7.63;;
15151;SDS011;7676;50.900;6.234;2023-09-12T10:30:07;7.13;;;6.43;;
15151;SDS011;7676;50.900;6.234;2023-09-12T10:45:10;6.93;;;6.23;;
15151;SDS011;7676;50.900;6.234;2023-09-12T11:00:13;4.50;;;4.10;;
15151;SDS011;7676;50.900;6.234;2023-09-12T11:15:17;6.43;;;5.50;;
15151;SDS011;7676;50.900;6.234;2023-09-12T11:30:22;5.87;;;5.33;;
15151;SDS011;7676;50.900;6.234;2023-09-12T11:45:27;6.43;;;5.83;;
15151;SDS011;7676;50.900;6.234;2023-09-12T12:00:30;5.20;;;4.40;;
15151;SDS011;7676;50.900;6.234;2023-09-12T12:15:34;5.30;;;4.80;;
15151;SDS011;7676;50.900;6.234;2023-09-12T12:30:37;4.93;;;4.53;;
15151;SDS011;7676;50.900;6.234;2023-09-12T12:45:51;5.50;;;4.63;;
15151;SDS011;7676;50.900;6.234;2023-09-12T13:00:56;4.33;;;3.93;;
15151;SDS011;7676;50.900;6.234;2023-09-12T13:15:59;4.17;;;3.83;;
15151;SDS011;7676;50.900;6.234;2023-09-12T13:31:03;3.87;;;3.57;;
15151;SDS011;7676;50.900;6.234;2023-09-12T13:46:06;4.80;;;4.30;;
15151;SDS011;7676;50.900;6.234;2023-09-12T14:01:12;3.83;;;3.53;;
15151;SDS011;7676;50.900;6.234;2023-09-12T14:16:26;4.17;;;3.73;;
15151;SDS011;7676;50.900;6.234;2023-09-12T14:31:29;4.77;;;4.27;;
15151;SDS011;7676;50.900;6.234;2023-09-12T14:46:31;4.87;;;4.43;;
15151;SDS011;7676;50.900;6.234;2023-09-12T15:01:34;5.03;;;4.53;;
15151;SDS011;7676;50.900;6.234;2023-09-12T15:16:39;4.50;;;4.10;;
15151;SDS011;7676;50.900;6.234;2023-09-12T15:31:42;5.35;;;4.30;;
15151;SDS011;7676;50.900;6.234;2023-09-12T15:46:45;5.43;;;4.93;;
15151;SDS011;7676;50.900;6.234;2023-09-12T16:01:47;5.20;;;4.80;;
15151;SDS011;7676;50.900;6.234;2023-09-12T16:16:50;5.77;;;5.27;;
15151;SDS011;7676;50.900;6.234;2023-09-12T16:31:53;9.80;;;6.93;;
15151;SDS011;7676;50.900;6.234;2023-09-12T16:46:56;6.03;;;4.83;;
15151;SDS011;7676;50.900;6.234;2023-09-12T17:02:00;7.93;;;7.13;;
15151;SDS011;7676;50.900;6.234;2023-09-12T17:17:04;7.63;;;6.83;;
15151;SDS011;7676;50.900;6.234;2023-09-12T17:32:08;8.90;;;8.10;;
15151;SDS011;7676;50.900;6.234;2023-09-12T17:47:12;10.07;;;8.77;;
15151;SDS011;7676;50.900;6.234;2023-09-12T18:02:15;11.03;;;9.93;;
15151;SDS011;7676;50.900;6.234;2023-09-12T18:17:18;2.13;;;1.93;;
15151;SDS011;7676;50.900;6.234;2023-09-12T18:32:21;3.83;;;1.67;;
15151;SDS011;7676;50.900;6.234;2023-09-12T18:47:24;2.50;;;0.93;;
15151;SDS011;7676;50.900;6.234;2023-09-12T19:02:28;2.70;;;1.33;;
15151;SDS011;7676;50.900;6.234;2023-09-12T19:17:31;1.73;;;1.40;;
15151;SDS011;7676;50.900;6.234;2023-09-12T19:32:34;3.57;;;1.47;;
15151;SDS011;7676;50.900;6.234;2023-09-12T19:47:37;2.47;;;1.40;;
15151;SDS011;7676;50.900;6.234;2023-09-12T20:03:00;1.97;;;1.57;;
15151;SDS011;7676;50.900;6.234;2023-09-12T20:18:10;2.53;;;1.50;;
15151;SDS011;7676;50.900;6.234;2023-09-12T20:33:15;3.83;;;2.00;;
15151;SDS011;7676;50.900;6.234;2023-09-12T20:48:18;2.23;;;1.97;;
15151;SDS011;7676;50.900;6.234;2023-09-12T21:03:21;2.30;;;1.50;;
15151;SDS011;7676;50.900;6.234;2023-09-12T21:18:25;2.20;;;1.70;;
15151;SDS011;7676;50.900;6.234;2023-09-12T21:33:28;2.03;;;1.87;;
15151;SDS011;7676;50.900;6.234;2023-09-12T21:48:31;2.93;;;2.67;;
15151;SDS011;7676;50.900;6.234;2023-09-12T22:03:35;3.43;;;3.13;;
15151;SDS011;7676;50.900;6.234;2023-09-12T22:18:38;4.50;;;4.10;;
15151;SDS011;7676;50.900;6.234;2023-09-12T22:33:42;5.90;;;4.20;;
15151;SDS011;7676;50.900;6.234;2023-09-12T22:48:45;5.70;;;5.17;;
15151;SDS011;7676;50.900;6.234;2023-09-12T23:03:48;6.93;;;6.23;;
15151;SDS011;7676;50.900;6.234;2023-09-12T23:18:51;8.73;;;7.57;;
15151;SDS011;7676;50.900;6.234;2023-09-12T23:33:54;8.77;;;7.87;;
15151;SDS011;7676;50.900;6.234;2023-09-12T23:48:57;8.67;;;7.77;;
